sensor_id;sensor_type;location;lat;lon;timestamp;P1;durP1;ratioP1;P2;durP2;ratioP2
1296;SDS011;641;48.492;9.184;2023-08-24T00:00:39;12.00;;;7.00;;
1296;SDS011;641;48.492;9.184;2023-08-24T00:03:05;14.40;;;7.30;;
1296;SDS011;641;48.492;9.184;2023-08-24T00:05:37;13.33;;;7.37;;
1296;SDS011;641;48.492;9.184;2023-08-24T00:08:07;15.50;;;7.37;;
1296;SDS011;641;48.492;9.184;2023-08-24T00:10:33;18.63;;;7.80;;
1296;SDS011;641;48.492;9.184;2023-08-24T00:12:59;14.30;;;8.57;;
1296;SDS011;641;48.492;9.184;2023-08-24T00:15:25;14.10;;;7.50;;
1296;SDS011;641;48.492;9.184;2023-08-24T00:17:51;15.50;;;7.20;;
1296;SDS011;641;48.492;9.184;2023-08-24T00:20:16;14.87;;;8.03;;
1296;SDS011;641;48.492;9.184;2023-08-24T00:22:42;14.50;;;8.03;;
1296;SDS011;641;48.492;9.184;2023-08-24T00:25:08;15.47;;;6.90;;
1296;SDS011;641;48.492;9.184;2023-08-24T00:27:34;12.00;;;7.03;;
1296;SDS011;641;48.492;9.184;2023-08-24T00:30:01;11.83;;;7.10;;
1296;SDS011;641;48.492;9.184;2023-08-24T00:32:29;12.17;;;6.87;;
1296;SDS011;641;48.492;9.184;2023-08-24T00:34:55;12.07;;;7.20;;
1296;SDS011;641;48.492;9.184;2023-08-24T00:37:21;16.93;;;8.20;;
1296;SDS011;641;48.492;9.184;2023-08-24T00:39:46;15.37;;;7.00;;
1296;SDS011;641;48.492;9.184;2023-08-24T00:42:12;15.70;;;7.90;;
1296;SDS011;641;48.492;9.184;2023-08-24T00:44:40;16.10;;;7.17;;
1296;SDS011;641;48.492;9.184;2023-08-24T00:47:06;14.67;;;6.70;;
1296;SDS011;641;48.492;9.184;2023-08-24T00:49:32;12.47;;;6.30;;
1296;SDS011;641;48.492;9.184;2023-08-24T00:51:58;12.40;;;6.10;;
1296;SDS011;641;48.492;9.184;2023-08-24T00:54:24;14.40;;;7.30;;
1296;SDS011;641;48.492;9.184;2023-08-24T00:56:50;14.63;;;6.80;;
1296;SDS011;641;48.492;9.184;2023-08-24T00:59:15;15.33;;;7.90;;
1296;SDS011;641;48.492;9.184;2023-08-24T01:01:41;12.67;;;6.87;;
1296;SDS011;641;48.492;9.184;2023-08-24T01:04:11;12.43;;;6.87;;
1296;SDS011;641;48.492;9.184;2023-08-24T01:06:37;15.40;;;7.77;;
1296;SDS011;641;48.492;9.184;2023-08-24T01:09:03;13.10;;;7.77;;
1296;SDS011;641;48.492;9.184;2023-08-24T01:11:36;12.23;;;6.90;;
1296;SDS011;641;48.492;9.184;2023-08-24T01:14:23;14.20;;;7.17;;
1296;SDS011;641;48.492;9.184;2023-08-24T01:17:04;12.57;;;7.53;;
1296;SDS011;641;48.492;9.184;2023-08-24T01:22:03;14.10;;;7.90;;
1296;SDS011;641;48.492;9.184;2023-08-24T01:24:37;13.47;;;7.50;;
1296;SDS011;641;48.492;9.184;2023-08-24T01:27:05;23.60;;;9.07;;
1296;SDS011;641;48.492;9.184;2023-08-24T01:29:31;14.83;;;7.53;;
1296;SDS011;641;48.492;9.184;2023-08-24T01:31:57;12.47;;;7.30;;
1296;SDS011;641;48.492;9.184;2023-08-24T01:34:23;14.70;;;7.90;;
1296;SDS011;641;48.492;9.184;2023-08-24T01:36:48;15.30;;;7.60;;
1296;SDS011;641;48.492;9.184;2023-08-24T01:39:17;15.50;;;7.70;;
1296;SDS011;641;48.492;9.184;2023-08-24T01:41:55;14.43;;;7.43;;
1296;SDS011;641;48.492;9.184;2023-08-24T01:44:27;12.20;;;6.67;;
1296;SDS011;641;48.492;9.184;2023-08-24T01:46:54;17.40;;;7.67;;
1296;SDS011;641;48.492;9.184;2023-08-24T01:49:21;14.57;;;7.90;;
1296;SDS011;641;48.492;9.184;2023-08-24T01:51:48;13.17;;;7.53;;
1296;SDS011;641;48.492;9.184;2023-08-24T01:54:15;13.77;;;7.40;;
1296;SDS011;641;48.492;9.184;2023-08-24T01:56:40;13.53;;;8.20;;
1296;SDS011;641;48.492;9.184;2023-08-24T01:59:06;18.37;;;9.13;;
1296;SDS011;641;48.492;9.184;2023-08-24T02:01:36;13.37;;;8.20;;
1296;SDS011;641;48.492;9.184;2023-08-24T02:04:01;16.90;;;8.80;;
1296;SDS011;641;48.492;9.184;2023-08-24T02:06:27;13.50;;;7.70;;
1296;SDS011;641;48.492;9.184;2023-08-24T02:08:53;14.00;;;7.80;;
1296;SDS011;641;48.492;9.184;2023-08-24T02:11:18;13.17;;;8.27;;
1296;SDS011;641;48.492;9.184;2023-08-24T02:13:44;26.60;;;9.77;;
1296;SDS011;641;48.492;9.184;2023-08-24T02:16:09;13.60;;;7.90;;
1296;SDS011;641;48.492;9.184;2023-08-24T02:18:35;14.00;;;8.27;;
1296;SDS011;641;48.492;9.184;2023-08-24T02:21:06;14.70;;;8.73;;
1296;SDS011;641;48.492;9.184;2023-08-24T02:23:32;13.27;;;7.93;;
1296;SDS011;641;48.492;9.184;2023-08-24T02:25:58;15.00;;;7.90;;
1296;SDS011;641;48.492;9.184;2023-08-24T02:28:23;12.57;;;8.70;;
1296;SDS011;641;48.492;9.184;2023-08-24T02:30:49;11.77;;;8.20;;
1296;SDS011;641;48.492;9.184;2023-08-24T02:33:14;14.63;;;8.77;;
1296;SDS011;641;48.492;9.184;2023-08-24T02:35:40;14.43;;;8.27;;
1296;SDS011;641;48.492;9.184;2023-08-24T02:38:05;13.90;;;8.23;;
1296;SDS011;641;48.492;9.184;2023-08-24T02:40:31;10.90;;;7.37;;
1296;SDS011;641;48.492;9.184;2023-08-24T02:42:57;13.73;;;7.60;;
1296;SDS011;641;48.492;9.184;2023-08-24T02:45:22;17.10;;;8.47;;
1296;SDS011;641;48.492;9.184;2023-08-24T02:47:48;16.93;;;8.27;;
1296;SDS011;641;48.492;9.184;2023-08-24T02:50:13;12.27;;;8.47;;
1296;SDS011;641;48.492;9.184;2023-08-24T02:52:39;18.30;;;8.83;;
1296;SDS011;641;48.492;9.184;2023-08-24T02:55:04;13.83;;;8.47;;
1296;SDS011;641;48.492;9.184;2023-08-24T02:57:30;12.73;;;8.20;;
1296;SDS011;641;48.492;9.184;2023-08-24T02:59:56;14.53;;;8.53;;
1296;SDS011;641;48.492;9.184;2023-08-24T03:02:21;13.00;;;8.17;;
1296;SDS011;641;48.492;9.184;2023-08-24T03:04:47;14.33;;;7.87;;
1296;SDS011;641;48.492;9.184;2023-08-24T03:07:12;14.77;;;8.50;;
1296;SDS011;641;48.492;9.184;2023-08-24T03:09:38;14.70;;;9.57;;
1296;SDS011;641;48.492;9.184;2023-08-24T03:12:04;17.20;;;9.27;;
1296;SDS011;641;48.492;9.184;2023-08-24T03:14:29;13.17;;;9.27;;
1296;SDS011;641;48.492;9.184;2023-08-24T03:16:55;17.57;;;10.80;;
1296;SDS011;641;48.492;9.184;2023-08-24T03:19:21;25.73;;;11.43;;
1296;SDS011;641;48.492;9.184;2023-08-24T03:21:46;19.13;;;10.60;;
1296;SDS011;641;48.492;9.184;2023-08-24T03:24:12;12.37;;;9.13;;
1296;SDS011;641;48.492;9.184;2023-08-24T03:26:37;13.20;;;9.50;;
1296;SDS011;641;48.492;9.184;2023-08-24T03:29:03;12.93;;;8.97;;
1296;SDS011;641;48.492;9.184;2023-08-24T03:31:28;14.70;;;9.90;;
1296;SDS011;641;48.492;9.184;2023-08-24T03:33:54;15.43;;;9.90;;
1296;SDS011;641;48.492;9.184;2023-08-24T03:36:19;16.90;;;9.70;;
1296;SDS011;641;48.492;9.184;2023-08-24T03:38:45;15.00;;;8.30;;
1296;SDS011;641;48.492;9.184;2023-08-24T03:41:11;13.10;;;8.50;;
1296;SDS011;641;48.492;9.184;2023-08-24T03:43:36;15.70;;;7.97;;
1296;SDS011;641;48.492;9.184;2023-08-24T03:46:02;12.20;;;7.83;;
1296;SDS011;641;48.492;9.184;2023-08-24T03:48:30;14.03;;;7.47;;
1296;SDS011;641;48.492;9.184;2023-08-24T03:50:56;13.30;;;8.20;;
1296;SDS011;641;48.492;9.184;2023-08-24T03:53:23;14.67;;;7.77;;
1296;SDS011;641;48.492;9.184;2023-08-24T03:55:49;13.33;;;8.93;;
1296;SDS011;641;48.492;9.184;2023-08-24T03:58:15;16.03;;;8.70;;
1296;SDS011;641;48.492;9.184;2023-08-24T04:00:41;12.40;;;8.50;;
1296;SDS011;641;48.492;9.184;2023-08-24T04:03:07;12.10;;;7.47;;
1296;SDS011;641;48.492;9.184;2023-08-24T04:05:32;12.93;;;7.87;;
1296;SDS011;641;48.492;9.184;2023-08-24T04:07:58;13.67;;;7.77;;
1296;SDS011;641;48.492;9.184;2023-08-24T04:10:25;11.40;;;7.07;;
1296;SDS011;641;48.492;9.184;2023-08-24T04:12:51;12.67;;;8.00;;
1296;SDS011;641;48.492;9.184;2023-08-24T04:15:17;16.37;;;8.13;;
1296;SDS011;641;48.492;9.184;2023-08-24T04:17:43;13.17;;;8.33;;
1296;SDS011;641;48.492;9.184;2023-08-24T04:20:09;12.90;;;8.87;;
1296;SDS011;641;48.492;9.184;2023-08-24T04:22:35;12.40;;;8.13;;
1296;SDS011;641;48.492;9.184;2023-08-24T04:25:00;12.80;;;7.80;;
1296;SDS011;641;48.492;9.184;2023-08-24T04:27:26;15.20;;;8.50;;
1296;SDS011;641;48.492;9.184;2023-08-24T04:29:52;13.83;;;7.90;;
1296;SDS011;641;48.492;9.184;2023-08-24T04:32:17;15.97;;;8.70;;
1296;SDS011;641;48.492;9.184;2023-08-24T04:34:43;21.10;;;9.20;;
1296;SDS011;641;48.492;9.184;2023-08-24T04:37:08;16.67;;;9.03;;
1296;SDS011;641;48.492;9.184;2023-08-24T04:39:34;18.37;;;9.50;;
1296;SDS011;641;48.492;9.184;2023-08-24T04:42:00;13.77;;;9.40;;
1296;SDS011;641;48.492;9.184;2023-08-24T04:44:27;13.87;;;8.90;;
1296;SDS011;641;48.492;9.184;2023-08-24T04:46:52;20.53;;;9.53;;
1296;SDS011;641;48.492;9.184;2023-08-24T04:49:18;17.50;;;10.10;;
1296;SDS011;641;48.492;9.184;2023-08-24T04:51:44;17.53;;;9.90;;
1296;SDS011;641;48.492;9.184;2023-08-24T04:54:09;14.17;;;9.07;;
1296;SDS011;641;48.492;9.184;2023-08-24T04:56:35;16.30;;;9.30;;
1296;SDS011;641;48.492;9.184;2023-08-24T04:59:00;13.40;;;9.07;;
1296;SDS011;641;48.492;9.184;2023-08-24T05:01:27;20.07;;;11.17;;
1296;SDS011;641;48.492;9.184;2023-08-24T05:03:55;15.33;;;10.10;;
1296;SDS011;641;48.492;9.184;2023-08-24T05:06:21;16.30;;;10.10;;
1296;SDS011;641;48.492;9.184;2023-08-24T05:08:46;14.93;;;10.20;;
1296;SDS011;641;48.492;9.184;2023-08-24T05:11:12;15.60;;;9.50;;
1296;SDS011;641;48.492;9.184;2023-08-24T05:13:40;16.53;;;9.93;;
1296;SDS011;641;48.492;9.184;2023-08-24T05:16:06;22.13;;;10.37;;
1296;SDS011;641;48.492;9.184;2023-08-24T05:18:31;14.30;;;10.30;;
1296;SDS011;641;48.492;9.184;2023-08-24T05:20:57;17.07;;;10.63;;
1296;SDS011;641;48.492;9.184;2023-08-24T05:23:22;13.10;;;9.10;;
1296;SDS011;641;48.492;9.184;2023-08-24T05:25:48;15.60;;;9.77;;
1296;SDS011;641;48.492;9.184;2023-08-24T05:28:13;15.87;;;10.70;;
1296;SDS011;641;48.492;9.184;2023-08-24T05:30:39;15.70;;;10.50;;
1296;SDS011;641;48.492;9.184;2023-08-24T05:33:04;17.23;;;10.10;;
1296;SDS011;641;48.492;9.184;2023-08-24T05:35:30;15.17;;;10.60;;
1296;SDS011;641;48.492;9.184;2023-08-24T05:37:55;14.40;;;10.43;;
1296;SDS011;641;48.492;9.184;2023-08-24T05:40:21;20.00;;;12.47;;
1296;SDS011;641;48.492;9.184;2023-08-24T05:42:47;20.00;;;11.90;;
1296;SDS011;641;48.492;9.184;2023-08-24T05:45:12;16.00;;;11.07;;
1296;SDS011;641;48.492;9.184;2023-08-24T05:47:38;14.27;;;11.00;;
1296;SDS011;641;48.492;9.184;2023-08-24T05:50:03;15.47;;;11.50;;
1296;SDS011;641;48.492;9.184;2023-08-24T05:52:29;23.07;;;11.13;;
1296;SDS011;641;48.492;9.184;2023-08-24T05:54:55;18.03;;;11.63;;
1296;SDS011;641;48.492;9.184;2023-08-24T05:57:20;17.80;;;11.27;;
1296;SDS011;641;48.492;9.184;2023-08-24T05:59:46;18.70;;;11.63;;
1296;SDS011;641;48.492;9.184;2023-08-24T06:02:12;16.60;;;11.20;;
1296;SDS011;641;48.492;9.184;2023-08-24T06:04:37;14.93;;;11.37;;
1296;SDS011;641;48.492;9.184;2023-08-24T06:07:03;18.47;;;12.03;;
1296;SDS011;641;48.492;9.184;2023-08-24T06:09:29;17.77;;;12.17;;
1296;SDS011;641;48.492;9.184;2023-08-24T06:11:56;20.97;;;12.10;;
1296;SDS011;641;48.492;9.184;2023-08-24T06:14:22;19.70;;;12.93;;
1296;SDS011;641;48.492;9.184;2023-08-24T06:16:47;15.73;;;11.20;;
1296;SDS011;641;48.492;9.184;2023-08-24T06:19:13;16.20;;;12.23;;
1296;SDS011;641;48.492;9.184;2023-08-24T06:21:39;18.37;;;12.30;;
1296;SDS011;641;48.492;9.184;2023-08-24T06:24:05;15.00;;;11.33;;
1296;SDS011;641;48.492;9.184;2023-08-24T06:26:30;17.70;;;11.03;;
1296;SDS011;641;48.492;9.184;2023-08-24T06:28:56;19.83;;;12.20;;
1296;SDS011;641;48.492;9.184;2023-08-24T06:31:21;16.67;;;12.10;;
1296;SDS011;641;48.492;9.184;2023-08-24T06:33:47;20.97;;;11.90;;
1296;SDS011;641;48.492;9.184;2023-08-24T06:36:14;20.93;;;11.63;;
1296;SDS011;641;48.492;9.184;2023-08-24T06:38:39;18.10;;;11.83;;
1296;SDS011;641;48.492;9.184;2023-08-24T06:41:05;17.00;;;11.00;;
1296;SDS011;641;48.492;9.184;2023-08-24T06:43:30;18.57;;;11.03;;
1296;SDS011;641;48.492;9.184;2023-08-24T06:45:56;18.93;;;10.27;;
1296;SDS011;641;48.492;9.184;2023-08-24T06:48:21;15.97;;;10.57;;
1296;SDS011;641;48.492;9.184;2023-08-24T06:50:47;17.90;;;10.77;;
1296;SDS011;641;48.492;9.184;2023-08-24T06:53:13;16.27;;;10.20;;
1296;SDS011;641;48.492;9.184;2023-08-24T06:55:39;16.13;;;10.93;;
1296;SDS011;641;48.492;9.184;2023-08-24T06:58:05;14.10;;;10.00;;
1296;SDS011;641;48.492;9.184;2023-08-24T07:00:31;17.73;;;11.30;;
1296;SDS011;641;48.492;9.184;2023-08-24T07:02:58;16.03;;;10.50;;
1296;SDS011;641;48.492;9.184;2023-08-24T07:05:24;13.00;;;10.00;;
1296;SDS011;641;48.492;9.184;2023-08-24T07:07:50;14.67;;;9.80;;
1296;SDS011;641;48.492;9.184;2023-08-24T07:10:15;14.97;;;9.80;;
1296;SDS011;641;48.492;9.184;2023-08-24T07:12:42;17.53;;;10.70;;
1296;SDS011;641;48.492;9.184;2023-08-24T07:15:09;16.73;;;11.13;;
1296;SDS011;641;48.492;9.184;2023-08-24T07:17:36;17.23;;;10.63;;
1296;SDS011;641;48.492;9.184;2023-08-24T07:20:02;17.13;;;10.77;;
1296;SDS011;641;48.492;9.184;2023-08-24T07:22:30;14.40;;;10.30;;
1296;SDS011;641;48.492;9.184;2023-08-24T07:24:56;15.93;;;10.50;;
1296;SDS011;641;48.492;9.184;2023-08-24T07:27:21;16.00;;;9.80;;
1296;SDS011;641;48.492;9.184;2023-08-24T07:29:47;15.80;;;9.23;;
1296;SDS011;641;48.492;9.184;2023-08-24T07:32:13;18.33;;;10.73;;
1296;SDS011;641;48.492;9.184;2023-08-24T07:34:38;13.50;;;9.60;;
1296;SDS011;641;48.492;9.184;2023-08-24T07:37:04;16.10;;;9.10;;
1296;SDS011;641;48.492;9.184;2023-08-24T07:39:30;15.40;;;9.07;;
1296;SDS011;641;48.492;9.184;2023-08-24T07:41:55;16.17;;;10.97;;
1296;SDS011;641;48.492;9.184;2023-08-24T07:44:21;16.13;;;10.57;;
1296;SDS011;641;48.492;9.184;2023-08-24T07:46:47;14.33;;;9.33;;
1296;SDS011;641;48.492;9.184;2023-08-24T07:49:13;16.30;;;9.90;;
1296;SDS011;641;48.492;9.184;2023-08-24T07:51:38;17.87;;;9.73;;
1296;SDS011;641;48.492;9.184;2023-08-24T07:54:04;13.67;;;9.37;;
1296;SDS011;641;48.492;9.184;2023-08-24T07:56:31;16.90;;;10.50;;
1296;SDS011;641;48.492;9.184;2023-08-24T07:58:57;21.50;;;10.33;;
1296;SDS011;641;48.492;9.184;2023-08-24T08:01:23;14.63;;;9.30;;
1296;SDS011;641;48.492;9.184;2023-08-24T08:03:49;16.23;;;9.33;;
1296;SDS011;641;48.492;9.184;2023-08-24T08:06:14;12.63;;;9.47;;
1296;SDS011;641;48.492;9.184;2023-08-24T08:08:40;16.57;;;8.80;;
1296;SDS011;641;48.492;9.184;2023-08-24T08:11:06;15.33;;;9.17;;
1296;SDS011;641;48.492;9.184;2023-08-24T08:13:31;15.87;;;9.40;;
1296;SDS011;641;48.492;9.184;2023-08-24T08:16:00;17.90;;;9.50;;
1296;SDS011;641;48.492;9.184;2023-08-24T08:18:28;17.67;;;9.73;;
1296;SDS011;641;48.492;9.184;2023-08-24T08:20:54;16.70;;;8.00;;
1296;SDS011;641;48.492;9.184;2023-08-24T08:23:20;12.83;;;8.70;;
1296;SDS011;641;48.492;9.184;2023-08-24T08:25:45;19.87;;;8.97;;
1296;SDS011;641;48.492;9.184;2023-08-24T08:28:11;15.23;;;9.37;;
1296;SDS011;641;48.492;9.184;2023-08-24T08:30:36;12.77;;;8.47;;
1296;SDS011;641;48.492;9.184;2023-08-24T08:33:02;16.03;;;9.67;;
1296;SDS011;641;48.492;9.184;2023-08-24T08:35:28;17.40;;;9.30;;
1296;SDS011;641;48.492;9.184;2023-08-24T08:37:53;14.50;;;8.07;;
1296;SDS011;641;48.492;9.184;2023-08-24T08:40:19;14.30;;;8.57;;
1296;SDS011;641;48.492;9.184;2023-08-24T08:42:45;13.27;;;8.00;;
1296;SDS011;641;48.492;9.184;2023-08-24T08:45:11;20.80;;;9.50;;
1296;SDS011;641;48.492;9.184;2023-08-24T08:47:37;14.60;;;9.17;;
1296;SDS011;641;48.492;9.184;2023-08-24T08:50:03;17.97;;;9.03;;
1296;SDS011;641;48.492;9.184;2023-08-24T08:52:30;14.00;;;8.20;;
1296;SDS011;641;48.492;9.184;2023-08-24T08:54:56;14.60;;;8.63;;
1296;SDS011;641;48.492;9.184;2023-08-24T08:57:23;15.17;;;8.53;;
1296;SDS011;641;48.492;9.184;2023-08-24T08:59:50;13.77;;;8.13;;
1296;SDS011;641;48.492;9.184;2023-08-24T09:02:18;13.80;;;8.73;;
1296;SDS011;641;48.492;9.184;2023-08-24T09:04:45;15.20;;;9.30;;
1296;SDS011;641;48.492;9.184;2023-08-24T09:07:15;15.30;;;7.57;;
1296;SDS011;641;48.492;9.184;2023-08-24T09:09:41;13.70;;;8.47;;
1296;SDS011;641;48.492;9.184;2023-08-24T09:12:08;18.40;;;8.37;;
1296;SDS011;641;48.492;9.184;2023-08-24T09:14:34;16.47;;;8.33;;
1296;SDS011;641;48.492;9.184;2023-08-24T09:17:00;15.00;;;7.50;;
1296;SDS011;641;48.492;9.184;2023-08-24T09:19:29;13.10;;;8.10;;
1296;SDS011;641;48.492;9.184;2023-08-24T09:21:59;11.90;;;8.00;;
1296;SDS011;641;48.492;9.184;2023-08-24T09:24:33;15.57;;;6.63;;
1296;SDS011;641;48.492;9.184;2023-08-24T09:27:04;14.70;;;7.87;;
1296;SDS011;641;48.492;9.184;2023-08-24T09:29:39;13.70;;;7.03;;
1296;SDS011;641;48.492;9.184;2023-08-24T09:32:07;14.87;;;7.70;;
1296;SDS011;641;48.492;9.184;2023-08-24T09:34:33;14.17;;;6.87;;
1296;SDS011;641;48.492;9.184;2023-08-24T09:37:01;18.87;;;6.93;;
1296;SDS011;641;48.492;9.184;2023-08-24T09:39:30;12.50;;;6.70;;
1296;SDS011;641;48.492;9.184;2023-08-24T09:41:59;11.27;;;6.30;;
1296;SDS011;641;48.492;9.184;2023-08-24T09:44:28;11.40;;;7.00;;
1296;SDS011;641;48.492;9.184;2023-08-24T09:46:54;16.30;;;7.20;;
1296;SDS011;641;48.492;9.184;2023-08-24T09:49:19;13.27;;;6.63;;
1296;SDS011;641;48.492;9.184;2023-08-24T09:51:46;12.07;;;7.17;;
1296;SDS011;641;48.492;9.184;2023-08-24T09:54:13;12.27;;;6.10;;
1296;SDS011;641;48.492;9.184;2023-08-24T09:56:41;11.63;;;6.20;;
1296;SDS011;641;48.492;9.184;2023-08-24T10:01:40;10.30;;;5.60;;
1296;SDS011;641;48.492;9.184;2023-08-24T10:04:08;13.20;;;6.37;;
1296;SDS011;641;48.492;9.184;2023-08-24T10:06:34;16.87;;;6.80;;
1296;SDS011;641;48.492;9.184;2023-08-24T10:09:02;13.07;;;7.30;;
1296;SDS011;641;48.492;9.184;2023-08-24T10:11:34;14.97;;;6.33;;
1296;SDS011;641;48.492;9.184;2023-08-24T10:14:04;13.23;;;7.40;;
1296;SDS011;641;48.492;9.184;2023-08-24T10:16:35;10.90;;;6.57;;
1296;SDS011;641;48.492;9.184;2023-08-24T10:19:02;13.70;;;7.07;;
1296;SDS011;641;48.492;9.184;2023-08-24T10:21:29;12.20;;;7.13;;
1296;SDS011;641;48.492;9.184;2023-08-24T10:23:56;12.97;;;6.57;;
1296;SDS011;641;48.492;9.184;2023-08-24T10:26:25;12.20;;;6.60;;
1296;SDS011;641;48.492;9.184;2023-08-24T10:28:51;11.90;;;7.00;;
1296;SDS011;641;48.492;9.184;2023-08-24T10:31:17;11.70;;;6.43;;
1296;SDS011;641;48.492;9.184;2023-08-24T10:33:45;14.50;;;7.60;;
1296;SDS011;641;48.492;9.184;2023-08-24T10:36:15;15.50;;;6.67;;
1296;SDS011;641;48.492;9.184;2023-08-24T10:42:10;13.93;;;7.30;;
1296;SDS011;641;48.492;9.184;2023-08-24T10:44:36;16.37;;;7.30;;
1296;SDS011;641;48.492;9.184;2023-08-24T10:47:14;11.70;;;6.37;;
1296;SDS011;641;48.492;9.184;2023-08-24T10:49:42;21.77;;;7.00;;
1296;SDS011;641;48.492;9.184;2023-08-24T10:54:59;15.00;;;7.43;;
1296;SDS011;641;48.492;9.184;2023-08-24T10:57:27;11.90;;;6.57;;
1296;SDS011;641;48.492;9.184;2023-08-24T11:00:02;12.77;;;5.93;;
1296;SDS011;641;48.492;9.184;2023-08-24T11:02:30;13.30;;;6.47;;
1296;SDS011;641;48.492;9.184;2023-08-24T11:07:32;12.07;;;7.10;;
1296;SDS011;641;48.492;9.184;2023-08-24T11:09:57;11.00;;;6.30;;
1296;SDS011;641;48.492;9.184;2023-08-24T11:12:23;15.50;;;6.40;;
1296;SDS011;641;48.492;9.184;2023-08-24T11:14:49;15.90;;;6.90;;
1296;SDS011;641;48.492;9.184;2023-08-24T11:17:19;15.63;;;6.40;;
1296;SDS011;641;48.492;9.184;2023-08-24T11:19:47;12.30;;;5.93;;
1296;SDS011;641;48.492;9.184;2023-08-24T11:22:14;12.10;;;6.57;;
1296;SDS011;641;48.492;9.184;2023-08-24T11:24:41;16.70;;;6.40;;
1296;SDS011;641;48.492;9.184;2023-08-24T11:27:07;11.57;;;6.37;;
1296;SDS011;641;48.492;9.184;2023-08-24T11:29:34;14.17;;;6.83;;
1296;SDS011;641;48.492;9.184;2023-08-24T11:31:59;9.67;;;5.47;;
1296;SDS011;641;48.492;9.184;2023-08-24T11:34:25;14.60;;;6.90;;
1296;SDS011;641;48.492;9.184;2023-08-24T11:36:51;13.77;;;6.37;;
1296;SDS011;641;48.492;9.184;2023-08-24T11:39:20;13.63;;;7.37;;
1296;SDS011;641;48.492;9.184;2023-08-24T11:44:29;11.00;;;6.00;;
1296;SDS011;641;48.492;9.184;2023-08-24T11:47:11;13.50;;;6.60;;
1296;SDS011;641;48.492;9.184;2023-08-24T11:49:36;13.07;;;6.10;;
1296;SDS011;641;48.492;9.184;2023-08-24T11:52:02;12.87;;;6.20;;
1296;SDS011;641;48.492;9.184;2023-08-24T11:54:28;13.87;;;6.97;;
1296;SDS011;641;48.492;9.184;2023-08-24T11:56:57;18.53;;;8.03;;
1296;SDS011;641;48.492;9.184;2023-08-24T11:59:22;13.30;;;6.10;;
1296;SDS011;641;48.492;9.184;2023-08-24T12:01:48;14.83;;;6.10;;
1296;SDS011;641;48.492;9.184;2023-08-24T12:04:14;19.80;;;7.00;;
1296;SDS011;641;48.492;9.184;2023-08-24T12:06:39;15.03;;;6.80;;
1296;SDS011;641;48.492;9.184;2023-08-24T12:09:05;12.63;;;6.30;;
1296;SDS011;641;48.492;9.184;2023-08-24T12:11:34;12.60;;;7.00;;
1296;SDS011;641;48.492;9.184;2023-08-24T12:14:01;16.27;;;6.57;;
1296;SDS011;641;48.492;9.184;2023-08-24T12:16:26;17.10;;;6.63;;
1296;SDS011;641;48.492;9.184;2023-08-24T12:18:56;15.40;;;6.77;;
1296;SDS011;641;48.492;9.184;2023-08-24T12:21:28;17.80;;;6.80;;
1296;SDS011;641;48.492;9.184;2023-08-24T12:24:01;20.63;;;6.80;;
1296;SDS011;641;48.492;9.184;2023-08-24T12:26:30;13.63;;;6.30;;
1296;SDS011;641;48.492;9.184;2023-08-24T12:28:59;14.80;;;5.70;;
1296;SDS011;641;48.492;9.184;2023-08-24T12:31:30;12.43;;;5.50;;
1296;SDS011;641;48.492;9.184;2023-08-24T12:34:00;18.13;;;5.80;;
1296;SDS011;641;48.492;9.184;2023-08-24T12:36:28;15.30;;;4.93;;
1296;SDS011;641;48.492;9.184;2023-08-24T12:38:54;17.23;;;5.67;;
1296;SDS011;641;48.492;9.184;2023-08-24T12:41:20;13.80;;;5.80;;
1296;SDS011;641;48.492;9.184;2023-08-24T12:43:45;13.83;;;5.77;;
1296;SDS011;641;48.492;9.184;2023-08-24T12:46:11;17.90;;;7.10;;
1296;SDS011;641;48.492;9.184;2023-08-24T12:48:36;18.17;;;6.37;;
1296;SDS011;641;48.492;9.184;2023-08-24T12:51:02;16.00;;;5.60;;
1296;SDS011;641;48.492;9.184;2023-08-24T12:53:28;14.70;;;4.70;;
1296;SDS011;641;48.492;9.184;2023-08-24T12:55:54;12.90;;;5.77;;
1296;SDS011;641;48.492;9.184;2023-08-24T12:58:19;19.30;;;5.47;;
1296;SDS011;641;48.492;9.184;2023-08-24T13:00:45;12.80;;;5.60;;
1296;SDS011;641;48.492;9.184;2023-08-24T13:03:11;21.07;;;6.23;;
1296;SDS011;641;48.492;9.184;2023-08-24T13:05:36;19.40;;;6.67;;
1296;SDS011;641;48.492;9.184;2023-08-24T13:08:02;16.70;;;5.17;;
1296;SDS011;641;48.492;9.184;2023-08-24T13:10:28;18.03;;;5.77;;
1296;SDS011;641;48.492;9.184;2023-08-24T13:12:53;19.00;;;5.90;;
1296;SDS011;641;48.492;9.184;2023-08-24T13:15:19;14.43;;;5.13;;
1296;SDS011;641;48.492;9.184;2023-08-24T13:17:45;15.73;;;5.33;;
1296;SDS011;641;48.492;9.184;2023-08-24T13:20:11;17.77;;;5.93;;
1296;SDS011;641;48.492;9.184;2023-08-24T13:22:36;14.47;;;5.13;;
1296;SDS011;641;48.492;9.184;2023-08-24T13:25:02;13.10;;;5.63;;
1296;SDS011;641;48.492;9.184;2023-08-24T13:27:28;13.83;;;5.30;;
1296;SDS011;641;48.492;9.184;2023-08-24T13:29:56;16.03;;;5.73;;
1296;SDS011;641;48.492;9.184;2023-08-24T13:32:25;12.23;;;5.27;;
1296;SDS011;641;48.492;9.184;2023-08-24T13:34:50;11.60;;;4.73;;
1296;SDS011;641;48.492;9.184;2023-08-24T13:37:17;14.57;;;5.60;;
1296;SDS011;641;48.492;9.184;2023-08-24T13:39:43;18.30;;;5.90;;
1296;SDS011;641;48.492;9.184;2023-08-24T13:42:08;15.50;;;5.77;;
1296;SDS011;641;48.492;9.184;2023-08-24T13:44:34;19.30;;;6.13;;
1296;SDS011;641;48.492;9.184;2023-08-24T13:46:59;18.90;;;5.23;;
1296;SDS011;641;48.492;9.184;2023-08-24T13:49:25;12.80;;;5.83;;
1296;SDS011;641;48.492;9.184;2023-08-24T13:51:50;17.40;;;5.40;;
1296;SDS011;641;48.492;9.184;2023-08-24T13:54:17;17.13;;;6.57;;
1296;SDS011;641;48.492;9.184;2023-08-24T13:56:43;15.10;;;5.80;;
1296;SDS011;641;48.492;9.184;2023-08-24T13:59:10;20.90;;;6.30;;
1296;SDS011;641;48.492;9.184;2023-08-24T14:01:36;20.27;;;6.03;;
1296;SDS011;641;48.492;9.184;2023-08-24T14:04:02;19.43;;;6.40;;
1296;SDS011;641;48.492;9.184;2023-08-24T14:06:31;15.03;;;6.10;;
1296;SDS011;641;48.492;9.184;2023-08-24T14:09:00;14.50;;;5.30;;
1296;SDS011;641;48.492;9.184;2023-08-24T14:11:26;16.67;;;5.80;;
1296;SDS011;641;48.492;9.184;2023-08-24T14:13:52;13.10;;;5.93;;
1296;SDS011;641;48.492;9.184;2023-08-24T14:16:18;18.10;;;6.30;;
1296;SDS011;641;48.492;9.184;2023-08-24T14:18:44;12.10;;;5.03;;
1296;SDS011;641;48.492;9.184;2023-08-24T14:21:10;17.73;;;5.70;;
1296;SDS011;641;48.492;9.184;2023-08-24T14:23:36;15.73;;;5.27;;
1296;SDS011;641;48.492;9.184;2023-08-24T14:26:02;18.33;;;5.70;;
1296;SDS011;641;48.492;9.184;2023-08-24T14:28:46;16.30;;;5.20;;
1296;SDS011;641;48.492;9.184;2023-08-24T14:31:15;12.47;;;5.03;;
1296;SDS011;641;48.492;9.184;2023-08-24T14:33:42;14.23;;;5.53;;
1296;SDS011;641;48.492;9.184;2023-08-24T14:36:07;14.00;;;5.13;;
1296;SDS011;641;48.492;9.184;2023-08-24T14:38:34;13.37;;;5.37;;
1296;SDS011;641;48.492;9.184;2023-08-24T14:40:59;15.00;;;5.20;;
1296;SDS011;641;48.492;9.184;2023-08-24T14:43:26;14.73;;;5.47;;
1296;SDS011;641;48.492;9.184;2023-08-24T14:45:53;12.40;;;5.63;;
1296;SDS011;641;48.492;9.184;2023-08-24T14:48:19;17.33;;;6.03;;
1296;SDS011;641;48.492;9.184;2023-08-24T14:50:45;17.00;;;6.87;;
1296;SDS011;641;48.492;9.184;2023-08-24T14:53:10;16.33;;;6.03;;
1296;SDS011;641;48.492;9.184;2023-08-24T14:55:39;16.37;;;5.40;;
1296;SDS011;641;48.492;9.184;2023-08-24T14:58:05;14.93;;;5.73;;
1296;SDS011;641;48.492;9.184;2023-08-24T15:00:31;14.40;;;5.70;;
1296;SDS011;641;48.492;9.184;2023-08-24T15:02:57;21.03;;;6.63;;
1296;SDS011;641;48.492;9.184;2023-08-24T15:05:22;14.63;;;5.70;;
1296;SDS011;641;48.492;9.184;2023-08-24T15:07:49;15.80;;;5.47;;
1296;SDS011;641;48.492;9.184;2023-08-24T15:10:15;15.43;;;5.50;;
1296;SDS011;641;48.492;9.184;2023-08-24T15:12:42;18.10;;;5.97;;
1296;SDS011;641;48.492;9.184;2023-08-24T15:15:08;15.33;;;5.47;;
1296;SDS011;641;48.492;9.184;2023-08-24T15:17:35;15.13;;;5.80;;
1296;SDS011;641;48.492;9.184;2023-08-24T15:20:01;18.30;;;6.93;;
1296;SDS011;641;48.492;9.184;2023-08-24T15:22:30;18.43;;;6.30;;
1296;SDS011;641;48.492;9.184;2023-08-24T15:24:57;14.50;;;6.00;;